Time;durP1;ratioP1;P1;durP2;ratioP2;P2;SDS_P1;SDS_P2;PMS_P1;PMS_P2;Temp;Humidity;BMP_temperature;BMP_pressure;BME280_temperature;BME280_humidity;BME280_pressure;Samples;Min_cycle;Max_cycle;Signal;HPM_P1;HPM_P2
2023/12/16 00:02:28;;;;;;;20.87;6.37;;;;;;;5.18;100.00;102897.53;7376480;19;20501;-45
2023/12/16 00:05:01;;;;;;;23.80;6.40;;;;;;;5.19;100.00;102895.13;7397521;19;20403;-42
2023/12/16 00:07:30;;;;;;;31.37;5.67;;;;;;;5.14;100.00;102893.78;7374283;19;20446;-42
2023/12/16 00:10:00;;;;;;;20.53;5.50;;;;;;;5.15;100.00;102898.13;7396865;19;20447;-42
2023/12/16 00:12:30;;;;;;;33.43;6.77;;;;;;;5.16;100.00;102893.91;7374568;19;20427;-46
2023/12/16 00:15:00;;;;;;;11.93;4.80;;;;;;;5.15;100.00;102895.56;7400289;19;20803;-44
2023/12/16 00:17:30;;;;;;;34.13;6.23;;;;;;;5.13;100.00;102902.22;7374855;19;20427;-43
2023/12/16 00:20:03;;;;;;;20.90;6.00;;;;;;;5.14;100.00;102899.78;7397169;19;20971;-45
2023/12/16 00:22:38;;;;;;;20.40;5.97;;;;;;;5.13;100.00;102913.34;7374542;19;20450;-43
2023/12/16 00:25:09;;;;;;;27.30;7.40;;;;;;;5.13;100.00;102897.97;7399930;19;20427;-44
2023/12/16 00:27:39;;;;;;;32.90;7.00;;;;;;;5.13;100.00;102903.09;7376111;19;20419;-42
2023/12/16 00:30:10;;;;;;;17.97;6.57;;;;;;;5.15;100.00;102900.69;7396401;19;20451;-44
2023/12/16 00:32:40;;;;;;;27.83;6.73;;;;;;;5.10;100.00;102905.38;7374463;19;20471;-44
2023/12/16 00:35:12;;;;;;;20.03;6.10;;;;;;;5.12;100.00;102910.59;7397279;19;20411;-44
2023/12/16 00:37:42;;;;;;;15.47;5.47;;;;;;;5.07;100.00;102920.41;7374151;19;20425;-45
2023/12/16 00:40:13;;;;;;;18.17;5.17;;;;;;;5.05;100.00;102926.13;7397319;19;20459;-43
2023/12/16 00:42:42;;;;;;;22.97;5.60;;;;;;;5.10;100.00;102924.91;7374375;19;20462;-43
2023/12/16 00:45:12;;;;;;;23.10;5.83;;;;;;;5.08;100.00;102921.31;7399018;19;20396;-44
2023/12/16 00:47:42;;;;;;;20.83;6.60;;;;;;;5.07;100.00;102904.16;7373664;19;20867;-46
2023/12/16 00:50:14;;;;;;;17.27;6.07;;;;;;;5.04;100.00;102912.44;7396146;19;20467;-43
2023/12/16 00:52:44;;;;;;;23.27;6.80;;;;;;;5.06;100.00;102907.44;7372999;19;20419;-44
2023/12/16 00:55:14;;;;;;;27.30;5.83;;;;;;;5.05;100.00;102900.53;7396082;19;20399;-46
2023/12/16 00:57:43;;;;;;;16.27;5.97;;;;;;;4.97;100.00;102897.25;7373537;19;20828;-44
2023/12/16 01:00:14;;;;;;;27.40;5.80;;;;;;;4.96;100.00;102896.31;7393329;19;20790;-44
2023/12/16 01:02:43;;;;;;;24.90;7.30;;;;;;;4.94;100.00;102900.38;7373203;19;20829;-44
2023/12/16 01:05:16;;;;;;;19.17;5.70;;;;;;;4.93;100.00;102903.66;7395757;19;20487;-43
2023/12/16 01:07:46;;;;;;;16.67;5.73;;;;;;;4.97;100.00;102910.91;7373335;19;20419;-43
2023/12/16 01:10:16;;;;;;;26.60;6.60;;;;;;;4.95;100.00;102930.34;7395684;19;20443;-44
2023/12/16 01:12:45;;;;;;;33.90;6.33;;;;;;;4.97;100.00;102943.28;7372757;19;20500;-45
2023/12/16 01:15:15;;;;;;;16.90;5.83;;;;;;;4.93;100.00;102946.28;7395658;19;20411;-44
2023/12/16 01:17:45;;;;;;;24.97;5.57;;;;;;;4.95;100.00;102952.44;7374341;19;20439;-43
2023/12/16 01:20:18;;;;;;;19.00;5.20;;;;;;;4.98;100.00;102960.44;7395233;19;20987;-46
2023/12/16 01:22:47;;;;;;;12.73;5.70;;;;;;;4.93;100.00;102949.72;7373478;19;20788;-46
2023/12/16 01:25:17;;;;;;;24.10;4.80;;;;;;;4.92;100.00;102944.47;7395968;19;20496;-45
2023/12/16 01:27:46;;;;;;;21.23;5.03;;;;;;;4.92;100.00;102944.47;7373059;19;20415;-43
2023/12/16 01:30:16;;;;;;;20.43;4.63;;;;;;;4.94;100.00;102953.19;7395109;19;20502;-45
2023/12/16 01:32:46;;;;;;;10.93;3.73;;;;;;;4.87;100.00;102951.66;7373583;19;20488;-46
2023/12/16 01:35:18;;;;;;;19.30;5.10;;;;;;;4.88;100.00;102948.38;7395442;19;20428;-46
2023/12/16 01:37:48;;;;;;;16.63;3.90;;;;;;;4.87;100.00;102951.66;7373054;19;20419;-44
2023/12/16 01:40:18;;;;;;;24.20;5.60;;;;;;;4.83;100.00;102930.00;7394444;19;20902;-46
2023/12/16 01:42:48;;;;;;;15.20;4.13;;;;;;;4.84;100.00;102925.78;7371193;19;20440;-47
2023/12/16 01:45:18;;;;;;;14.07;4.37;;;;;;;4.80;100.00;102919.47;7395180;19;20404;-45
2023/12/16 01:47:48;;;;;;;22.10;4.47;;;;;;;4.83;100.00;102924.00;7372472;19;20431;-42
2023/12/16 01:50:21;;;;;;;19.83;6.83;;;;;;;4.79;100.00;102916.75;7394586;19;21197;-43
2023/12/16 01:52:51;;;;;;;25.03;4.27;;;;;;;4.78;100.00;102912.41;7371946;19;20415;-43
2023/12/16 01:55:21;;;;;;;22.13;5.20;;;;;;;4.77;100.00;102902.91;7395141;19;20783;-43
2023/12/16 01:57:51;;;;;;;16.53;4.20;;;;;;;4.76;100.00;102893.44;7372388;19;20434;-43
2023/12/16 02:00:22;;;;;;;18.23;4.90;;;;;;;4.73;100.00;102886.38;7394421;19;20447;-43
2023/12/16 02:02:52;;;;;;;13.50;3.40;;;;;;;4.68;100.00;102888.44;7372084;19;20431;-43
2023/12/16 02:05:24;;;;;;;14.73;3.93;;;;;;;4.70;100.00;102886.03;7395574;19;20875;-42
2023/12/16 02:07:54;;;;;;;19.63;4.00;;;;;;;4.67;100.00;102876.41;7372329;19;20423;-45
2023/12/16 02:10:24;;;;;;;16.10;3.50;;;;;;;4.60;100.00;102868.88;7393334;19;20973;-46
2023/12/16 02:12:54;;;;;;;17.33;4.17;;;;;;;4.63;100.00;102869.19;7372656;19;20419;-43
2023/12/16 02:15:23;;;;;;;21.37;5.20;;;;;;;4.60;100.00;102863.75;7395287;19;20432;-42
2023/12/16 02:17:53;;;;;;;15.40;3.73;;;;;;;4.60;100.00;102871.44;7373550;19;20421;-42
2023/12/16 02:20:26;;;;;;;14.57;3.40;;;;;;;4.56;100.00;102856.56;7394176;19;21007;-43
2023/12/16 02:22:56;;;;;;;18.10;3.77;;;;;;;4.54;100.00;102860.59;7372344;19;20425;-43
2023/12/16 02:25:29;;;;;;;18.07;3.27;;;;;;;4.54;100.00;102860.59;7394777;19;20940;-44
2023/12/16 02:27:58;;;;;;;22.73;4.60;;;;;;;4.56;100.00;102854.00;7371525;19;20994;-43
2023/12/16 02:30:28;;;;;;;18.83;2.63;;;;;;;4.54;100.00;102846.16;7393786;19;20452;-44
2023/12/16 02:32:58;;;;;;;12.73;2.93;;;;;;;4.55;100.00;102842.88;7371254;19;20432;-44
2023/12/16 02:35:27;;;;;;;22.20;2.90;;;;;;;4.57;100.00;102838.78;7395111;19;20487;-46
2023/12/16 02:37:57;;;;;;;16.50;3.67;;;;;;;4.56;100.00;102848.88;7372125;19;20487;-42
2023/12/16 02:40:29;;;;;;;14.57;3.07;;;;;;;4.58;100.00;102840.59;7394250;19;20448;-43
2023/12/16 02:42:59;;;;;;;13.07;3.43;;;;;;;4.60;100.00;102848.44;7370679;19;20443;-44
2023/12/16 02:45:28;;;;;;;12.97;4.00;;;;;;;4.66;100.00;102854.16;7393789;19;20979;-45
2023/12/16 02:47:58;;;;;;;19.60;3.70;;;;;;;4.71;100.00;102854.59;7370554;19;20491;-44
2023/12/16 02:50:27;;;;;;;15.90;3.77;;;;;;;4.75;100.00;102848.13;7386871;19;20464;-43
2023/12/16 02:52:57;;;;;;;21.77;4.30;;;;;;;4.80;100.00;102841.81;7370732;19;20431;-45
2023/12/16 02:55:29;;;;;;;6.03;2.73;;;;;;;4.80;100.00;102846.94;7393352;19;20404;-43
2023/12/16 02:57:59;;;;;;;7.23;2.90;;;;;;;4.80;100.00;102841.81;7371503;19;20427;-43
2023/12/16 03:00:29;;;;;;;22.73;3.40;;;;;;;4.82;100.00;102840.34;7393760;19;20461;-43
2023/12/16 03:02:58;;;;;;;27.33;5.60;;;;;;;4.87;100.00;102834.00;7370636;19;20432;-44
2023/12/16 03:05:28;;;;;;;14.03;3.33;;;;;;;4.85;100.00;102841.53;7394848;19;20403;-43
2023/12/16 03:07:58;;;;;;;15.40;5.47;;;;;;;4.85;100.00;102827.84;7371228;19;20427;-44
2023/12/16 03:10:30;;;;;;;11.63;3.23;;;;;;;4.85;100.00;102840.63;7393088;19;20471;-45
2023/12/16 03:13:00;;;;;;;13.20;2.83;;;;;;;4.82;100.00;102845.47;7370922;19;20796;-44
2023/12/16 03:15:30;;;;;;;9.60;3.10;;;;;;;4.81;100.00;102843.63;7394265;19;21295;-45
2023/12/16 03:17:59;;;;;;;11.07;3.13;;;;;;;4.82;100.00;102845.47;7370574;19;20958;-44
2023/12/16 03:20:29;;;;;;;22.03;3.47;;;;;;;4.84;100.00;102847.41;7393067;19;20450;-44
2023/12/16 03:22:58;;;;;;;14.77;3.30;;;;;;;4.83;100.00;102847.25;7372202;19;20814;-42
2023/12/16 03:25:31;;;;;;;9.97;3.00;;;;;;;4.84;100.00;102855.09;7403059;19;20403;-44
2023/12/16 03:28:00;;;;;;;11.20;3.47;;;;;;;4.90;100.00;102869.22;7377347;19;20423;-45
2023/12/16 03:30:30;;;;;;;11.70;4.07;;;;;;;4.93;100.00;102890.00;7398486;19;20454;-45
2023/12/16 03:32:59;;;;;;;9.57;2.30;;;;;;;4.95;100.00;102894.50;7376461;19;20789;-46
2023/12/16 03:35:29;;;;;;;8.77;2.50;;;;;;;4.96;100.00;102896.31;7399549;19;20407;-43
2023/12/16 03:38:00;;;;;;;16.47;2.50;;;;;;;4.96;100.00;102904.00;7376487;19;20954;-44
2023/12/16 03:40:32;;;;;;;11.50;2.90;;;;;;;5.01;100.00;102901.88;7398227;19;20459;-43
2023/12/16 03:43:02;;;;;;;8.63;3.10;;;;;;;4.98;100.00;102901.59;7375072;19;20428;-43
2023/12/16 03:45:31;;;;;;;18.17;4.43;;;;;;;5.00;100.00;102897.53;7399923;19;20994;-44
2023/12/16 03:48:01;;;;;;;15.90;3.10;;;;;;;5.02;100.00;102900.25;7376523;19;20415;-42
2023/12/16 03:50:31;;;;;;;7.80;3.07;;;;;;;5.05;100.00;102903.09;7396944;19;20443;-43
2023/12/16 03:53:00;;;;;;;4.03;1.90;;;;;;;5.07;100.00;102909.28;7377109;19;20981;-46
2023/12/16 03:55:32;;;;;;;7.23;2.43;;;;;;;5.09;100.00;102918.00;7399464;19;20424;-44
2023/12/16 03:58:02;;;;;;;10.47;2.73;;;;;;;5.13;100.00;102923.56;7377276;19;20427;-44
2023/12/16 04:00:32;;;;;;;18.57;4.67;;;;;;;5.21;100.00;102938.78;7396948;19;20450;-44
2023/12/16 04:03:03;;;;;;;11.77;2.90;;;;;;;5.20;100.00;102945.56;7375747;19;20769;-42
2023/12/16 04:05:33;;;;;;;6.80;2.07;;;;;;;5.21;100.00;102952.47;7397102;19;20407;-42
2023/12/16 04:08:03;;;;;;;12.00;2.73;;;;;;;5.21;100.00;102955.03;7377155;19;20502;-44
2023/12/16 04:10:35;;;;;;;8.93;3.40;;;;;;;5.24;100.00;102975.81;7396218;19;20459;-44
2023/12/16 04:13:05;;;;;;;14.23;2.80;;;;;;;5.25;100.00;102976.72;7375650;19;20423;-43
2023/12/16 04:15:34;;;;;;;13.77;2.37;;;;;;;5.25;100.00;102977.66;7396798;19;20399;-43
2023/12/16 04:18:04;;;;;;;11.30;2.70;;;;;;;5.28;100.00;102979.56;7375323;19;20439;-45
2023/12/16 04:20:34;;;;;;;8.57;2.40;;;;;;;5.27;100.00;102980.34;7395682;19;20456;-42
2023/12/16 04:23:03;;;;;;;8.10;1.90;;;;;;;5.27;100.00;102993.13;7376646;19;20510;-42
2023/12/16 04:25:35;;;;;;;10.10;2.57;;;;;;;5.31;100.00;102986.66;7396675;19;20416;-45
2023/12/16 04:28:05;;;;;;;10.27;2.63;;;;;;;5.30;100.00;102997.66;7375518;19;20419;-43
2023/12/16 04:30:35;;;;;;;7.77;1.70;;;;;;;5.29;100.00;102998.41;7395260;19;20468;-43
2023/12/16 04:33:05;;;;;;;8.90;3.00;;;;;;;5.25;100.00;102998.13;7375186;19;20462;-43
2023/12/16 04:35:35;;;;;;;8.87;2.60;;;;;;;5.21;100.00;102996.00;7396463;19;20411;-45
2023/12/16 04:38:04;;;;;;;9.40;3.00;;;;;;;5.23;100.00;102996.16;7375043;19;20738;-42
2023/12/16 04:40:36;;;;;;;8.80;2.83;;;;;;;5.23;100.00;102988.47;7393825;19;21354;-45
2023/12/16 04:43:03;;;;;;;7.13;2.27;;;;;;;5.19;100.00;102991.47;7374080;19;20426;-44
2023/12/16 04:45:35;;;;;;;17.43;2.43;;;;;;;5.17;100.00;102993.88;7395686;19;20466;-42
2023/12/16 04:48:05;;;;;;;7.10;2.00;;;;;;;5.16;100.00;102989.50;7369732;19;20421;-44
2023/12/16 04:50:35;;;;;;;12.97;2.20;;;;;;;5.13;100.00;102986.66;7396722;19;20447;-44
2023/12/16 04:53:04;;;;;;;9.43;3.20;;;;;;;5.11;100.00;102983.94;7375412;19;20837;-42
2023/12/16 04:55:37;;;;;;;8.77;2.30;;;;;;;5.13;100.00;102986.66;7395070;19;20424;-42
2023/12/16 04:58:06;;;;;;;9.53;3.30;;;;;;;5.15;100.00;102995.38;7374529;19;20506;-43
2023/12/16 05:00:36;;;;;;;7.20;2.40;;;;;;;5.17;100.00;102999.00;7395130;19;20447;-44
2023/12/16 05:03:06;;;;;;;14.07;3.30;;;;;;;5.20;100.00;102994.19;7368458;19;20507;-44
2023/12/16 05:05:36;;;;;;;11.27;2.90;;;;;;;5.21;100.00;103002.75;7398621;19;20816;-43
2023/12/16 05:08:06;;;;;;;10.10;2.40;;;;;;;5.23;100.00;102997.03;7373816;19;20415;-45
2023/12/16 05:10:38;;;;;;;4.13;2.13;;;;;;;5.27;100.00;103006.84;7392186;19;20506;-44
2023/12/16 05:13:10;;;;;;;8.60;3.10;;;;;;;5.27;100.00;103006.84;7374171;19;20885;-44
2023/12/16 05:15:41;;;;;;;14.73;4.63;;;;;;;5.27;100.00;103001.72;7394850;19;20407;-44
2023/12/16 05:18:11;;;;;;;20.90;4.60;;;;;;;5.27;100.00;103006.84;7372632;19;20495;-44
2023/12/16 05:20:40;;;;;;;7.20;2.80;;;;;;;5.31;100.00;103014.81;7394029;19;20792;-47
2023/12/16 05:23:10;;;;;;;13.50;3.50;;;;;;;5.32;100.00;103019.22;7373271;19;20435;-43
2023/12/16 05:25:42;;;;;;;12.60;2.17;;;;;;;5.30;100.00;103020.69;7394882;19;20771;-45
2023/12/16 05:28:12;;;;;;;20.73;5.47;;;;;;;5.35;100.00;103016.94;7374013;19;20443;-44
2023/12/16 05:30:42;;;;;;;16.60;2.80;;;;;;;5.32;100.00;103014.09;7394630;19;20435;-43
2023/12/16 05:33:12;;;;;;;15.43;3.80;;;;;;;5.32;100.00;103012.41;7369661;19;20522;-44
2023/12/16 05:35:41;;;;;;;9.17;3.00;;;;;;;5.33;100.00;103021.91;7396904;19;20507;-44
2023/12/16 05:38:11;;;;;;;8.00;2.80;;;;;;;5.31;100.00;103022.50;7373831;19;20969;-43
2023/12/16 05:40:43;;;;;;;8.77;3.17;;;;;;;5.34;100.00;103026.25;7394482;19;20444;-45
2023/12/16 05:43:13;;;;;;;12.23;3.13;;;;;;;5.34;100.00;103020.25;7369042;19;20801;-43
2023/12/16 05:45:43;;;;;;;14.30;2.23;;;;;;;5.33;100.00;103015.91;7395757;19;20432;-42
2023/12/16 05:48:13;;;;;;;15.73;3.00;;;;;;;5.31;100.00;103008.06;7372958;19;20521;-43
2023/12/16 05:50:43;;;;;;;11.67;3.00;;;;;;;5.31;100.00;103002.94;7394986;19;20565;-44
2023/12/16 05:53:12;;;;;;;6.50;2.20;;;;;;;5.29;100.00;102998.41;7372675;19;20429;-43
2023/12/16 05:55:47;;;;;;;6.60;1.80;;;;;;;5.30;100.00;103001.13;7395512;19;20415;-46
2023/12/16 05:58:17;;;;;;;4.33;1.20;;;;;;;5.31;100.00;102994.34;7372443;19;20419;-45
2023/12/16 06:00:50;;;;;;;5.27;1.63;;;;;;;5.32;100.00;102988.50;7394453;19;20451;-43
2023/12/16 06:03:20;;;;;;;6.73;2.00;;;;;;;5.30;100.00;102982.28;7373268;19;20434;-42
2023/12/16 06:05:49;;;;;;;12.30;2.93;;;;;;;5.30;100.00;102975.53;7396695;19;20421;-46
2023/12/16 06:08:19;;;;;;;101.87;34.13;;;;;;;5.46;100.00;102967.69;7372938;19;20419;-45
2023/12/16 06:10:51;;;;;;;31.90;10.07;;;;;;;5.51;100.00;102966.50;7391742;19;21047;-45
2023/12/16 06:13:21;;;;;;;9.80;4.40;;;;;;;5.48;100.00;102966.19;7372076;19;20498;-45
2023/12/16 06:15:50;;;;;;;16.13;3.40;;;;;;;5.50;100.00;102966.34;7394538;19;20463;-43
2023/12/16 06:18:40;;;;;;;12.00;1.63;;;;;;;5.37;100.00;102977.03;7372134;19;20966;-43
2023/12/16 06:21:10;;;;;;;7.50;3.00;;;;;;;5.35;100.00;102978.53;7394432;19;20460;-44
2023/12/16 06:23:39;;;;;;;11.33;2.63;;;;;;;5.34;100.00;102971.63;7369811;19;20954;-43
2023/12/16 06:26:11;;;;;;;4.70;2.07;;;;;;;5.30;100.00;102970.41;7392674;19;20419;-44
2023/12/16 06:28:42;;;;;;;9.50;2.03;;;;;;;5.27;100.00;102983.81;7370716;19;20517;-44
2023/12/16 06:31:17;;;;;;;8.30;2.50;;;;;;;5.33;100.00;102990.28;7391726;19;20783;-42
2023/12/16 06:33:47;;;;;;;5.53;1.67;;;;;;;5.26;100.00;102989.69;7371524;19;20518;-44
2023/12/16 06:36:17;;;;;;;3.53;1.07;;;;;;;5.25;100.00;103000.69;7395317;19;20412;-44
2023/12/16 06:38:47;;;;;;;14.87;2.07;;;;;;;5.27;100.00;103001.72;7372181;19;20430;-43
2023/12/16 06:41:19;;;;;;;5.00;1.67;;;;;;;5.27;100.00;103006.84;7393864;19;20412;-46
2023/12/16 06:43:49;;;;;;;9.90;2.33;;;;;;;5.26;100.00;102994.81;7370452;19;20427;-43
2023/12/16 06:46:19;;;;;;;10.93;3.50;;;;;;;5.26;100.00;102999.94;7394922;19;20399;-44
2023/12/16 06:48:49;;;;;;;14.57;2.40;;;;;;;5.25;100.00;102987.88;7372230;19;20439;-43
2023/12/16 06:51:19;;;;;;;2.70;0.80;;;;;;;5.25;100.00;102995.56;7394395;19;20403;-43
2023/12/16 06:53:49;;;;;;;6.03;2.03;;;;;;;5.29;100.00;102998.41;7371753;19;20439;-43
2023/12/16 06:56:21;;;;;;;4.40;1.63;;;;;;;5.25;100.00;103005.81;7394010;19;20755;-43
2023/12/16 06:58:51;;;;;;;5.53;2.00;;;;;;;5.30;100.00;103011.38;7368141;19;20462;-43
2023/12/16 07:01:20;;;;;;;8.70;1.93;;;;;;;5.29;100.00;103003.53;7395672;19;20414;-43
2023/12/16 07:03:50;;;;;;;12.17;2.60;;;;;;;5.31;100.00;103000.38;7370864;19;20419;-43
2023/12/16 07:06:20;;;;;;;8.77;2.20;;;;;;;5.34;100.00;103002.34;7395807;19;20399;-44
2023/12/16 07:08:50;;;;;;;5.47;1.87;;;;;;;5.33;100.00;103000.53;7371192;19;20434;-44
2023/12/16 07:11:22;;;;;;;8.20;2.23;;;;;;;5.36;100.00;103005.94;7394819;19;20395;-42
2023/12/16 07:13:52;;;;;;;9.37;2.20;;;;;;;5.35;100.00;102997.38;7371932;19;20431;-46
2023/12/16 07:16:21;;;;;;;9.20;2.43;;;;;;;5.35;100.00;103001.56;7393932;19;20772;-43
2023/12/16 07:18:51;;;;;;;10.97;2.30;;;;;;;5.33;100.00;102997.97;7370800;19;20891;-46
2023/12/16 07:21:21;;;;;;;7.50;1.93;;;;;;;5.33;100.00;103008.22;7392492;19;20407;-44
2023/12/16 07:23:50;;;;;;;14.63;2.00;;;;;;;5.31;100.00;103013.19;7370882;19;20842;-43
2023/12/16 07:26:20;;;;;;;7.00;1.77;;;;;;;5.34;100.00;103007.47;7393525;19;20415;-45
2023/12/16 07:28:50;;;;;;;3.27;1.53;;;;;;;5.38;100.00;103007.91;7370507;19;20423;-44
2023/12/16 07:31:19;;;;;;;3.03;1.60;;;;;;;5.40;100.00;103010.63;7394144;19;20433;-42
2023/12/16 07:33:49;;;;;;;6.20;2.50;;;;;;;5.41;100.00;103015.00;7370724;19;20479;-43
2023/12/16 07:36:19;;;;;;;13.77;3.07;;;;;;;5.43;100.00;103005.78;7394502;19;20408;-43
2023/12/16 07:38:49;;;;;;;7.83;2.10;;;;;;;5.45;100.00;103004.31;7370673;19;20423;-42
2023/12/16 07:41:18;;;;;;;5.33;2.07;;;;;;;5.46;100.00;103010.31;7387038;19;20935;-43
2023/12/16 07:43:51;;;;;;;3.87;1.80;;;;;;;5.53;100.00;103011.09;7366435;19;20490;-43
2023/12/16 07:46:20;;;;;;;8.63;2.40;;;;;;;5.53;100.00;103000.84;7391087;19;20499;-46
2023/12/16 07:48:50;;;;;;;11.00;4.17;;;;;;;5.56;100.00;103010.47;7368275;19;20518;-41
2023/12/16 07:51:24;;;;;;;5.63;1.87;;;;;;;5.54;100.00;103007.75;7389903;19;20419;-44
2023/12/16 07:53:55;;;;;;;10.20;2.70;;;;;;;5.57;100.00;103001.13;7368991;19;20442;-48
2023/12/16 07:56:29;;;;;;;3.57;1.30;;;;;;;5.55;100.00;102995.88;7393468;19;20977;-46
2023/12/16 07:59:01;;;;;;;6.73;1.30;;;;;;;5.51;100.00;102999.78;7368908;19;20982;-45
2023/12/16 08:01:30;;;;;;;15.17;5.03;;;;;;;5.56;100.00;102999.31;7393942;19;20428;-43
2023/12/16 08:04:00;;;;;;;4.30;1.47;;;;;;;5.49;100.00;103008.06;7370213;19;20399;-44
2023/12/16 08:06:30;;;;;;;9.20;2.30;;;;;;;5.50;100.00;103003.06;7391325;19;20415;-46
2023/12/16 08:09:03;;;;;;;5.00;1.77;;;;;;;5.43;100.00;103002.34;7393255;19;20407;-45
2023/12/16 08:11:33;;;;;;;20.23;3.20;;;;;;;5.38;100.00;102994.19;7400665;19;20496;-46
2023/12/16 08:14:06;;;;;;;5.00;1.97;;;;;;;5.32;100.00;102981.69;7400908;19;20783;-45
2023/12/16 08:16:38;;;;;;;25.80;3.70;;;;;;;5.31;100.00;102972.22;7399983;19;20421;-44
2023/12/16 08:19:08;;;;;;;7.40;2.50;;;;;;;5.25;100.00;102956.25;7373732;19;20471;-45
2023/12/16 08:21:38;;;;;;;12.73;2.97;;;;;;;5.19;100.00;102956.56;7396878;19;20989;-43
2023/12/16 08:24:08;;;;;;;14.50;3.70;;;;;;;5.18;100.00;102952.16;7374998;19;20502;-47
2023/12/16 08:26:38;;;;;;;8.17;2.00;;;;;;;5.19;100.00;102942.84;7396592;19;20411;-45
2023/12/16 08:29:10;;;;;;;13.77;3.30;;;;;;;5.20;100.00;102942.09;7397271;19;20400;-45
2023/12/16 08:31:42;;;;;;;23.87;3.47;;;;;;;5.16;100.00;102940.88;7396286;19;20399;-44
2023/12/16 08:34:11;;;;;;;9.80;3.03;;;;;;;5.13;100.00;102935.47;7375261;19;20427;-46
2023/12/16 08:36:41;;;;;;;7.37;3.30;;;;;;;5.12;100.00;102951.56;7399099;19;20479;-45
2023/12/16 08:39:11;;;;;;;16.27;3.57;;;;;;;5.09;100.00;102936.78;7373809;19;20449;-44
2023/12/16 08:41:40;;;;;;;11.07;3.40;;;;;;;5.08;100.00;102934.13;7393176;19;20782;-46
2023/12/16 08:44:13;;;;;;;5.07;2.30;;;;;;;5.06;100.00;102923.72;7371083;19;20470;-43
2023/12/16 08:46:43;;;;;;;10.63;3.30;;;;;;;5.10;100.00;102922.38;7398044;19;20418;-42
2023/12/16 08:49:13;;;;;;;10.50;3.77;;;;;;;5.09;100.00;102918.00;7373854;19;20550;-51
2023/12/16 08:51:42;;;;;;;21.57;4.27;;;;;;;5.06;100.00;102927.91;7394733;19;20407;-47
2023/12/16 08:54:12;;;;;;;12.33;4.20;;;;;;;5.07;100.00;102920.41;7374202;19;20399;-46
2023/12/16 08:56:43;;;;;;;10.43;3.67;;;;;;;5.06;100.00;102918.59;7397662;19;20410;-45
2023/12/16 08:59:15;;;;;;;18.00;5.30;;;;;;;5.09;100.00;102920.56;7373175;19;20580;-45
2023/12/16 09:01:48;;;;;;;19.90;4.93;;;;;;;5.10;100.00;102925.84;7395042;19;20407;-44
2023/12/16 09:04:17;;;;;;;15.17;5.53;;;;;;;5.14;100.00;102917.69;7376379;19;20458;-44
2023/12/16 09:06:47;;;;;;;15.97;6.00;;;;;;;5.07;100.00;102916.97;7397205;19;20403;-47
2023/12/16 09:09:17;;;;;;;13.10;6.07;;;;;;;5.07;100.00;102909.28;7373441;19;20433;-41
2023/12/16 09:11:46;;;;;;;9.17;5.33;;;;;;;5.04;100.00;102914.09;7394772;19;20988;-40
2023/12/16 09:14:18;;;;;;;28.30;5.90;;;;;;;5.05;100.00;102905.66;7375618;19;20425;-40
2023/12/16 09:16:48;;;;;;;13.60;4.77;;;;;;;5.05;100.00;102909.13;7395282;19;20396;-40
2023/12/16 09:19:18;;;;;;;11.47;5.23;;;;;;;5.08;100.00;102895.72;7373583;19;20395;-41
2023/12/16 09:21:50;;;;;;;18.53;5.30;;;;;;;5.05;100.00;102900.53;7392447;19;20771;-38
2023/12/16 09:24:20;;;;;;;17.80;3.00;;;;;;;5.03;100.00;102897.81;7371188;19;20441;-36
2023/12/16 09:26:50;;;;;;;21.40;4.70;;;;;;;5.08;100.00;102895.72;7397404;19;20774;-38
2023/12/16 09:29:25;;;;;;;13.77;6.10;;;;;;;5.04;100.00;102901.28;7373082;19;20399;-36
2023/12/16 09:31:57;;;;;;;9.27;6.00;;;;;;;4.99;100.00;102896.59;7394634;19;20759;-37
2023/12/16 09:34:26;;;;;;;13.40;4.90;;;;;;;5.04;100.00;102903.84;7369996;19;20415;-45
2023/12/16 09:36:56;;;;;;;14.83;5.27;;;;;;;5.03;100.00;102890.13;7394381;19;20407;-39
2023/12/16 09:39:25;;;;;;;8.20;4.10;;;;;;;5.00;100.00;102880.53;7371905;19;21014;-39
2023/12/16 09:41:58;;;;;;;11.83;5.30;;;;;;;5.03;100.00;102881.56;7394508;19;20424;-39
2023/12/16 09:44:30;;;;;;;14.63;6.33;;;;;;;4.99;100.00;102888.94;7373253;19;20470;-38
2023/12/16 09:47:00;;;;;;;23.57;8.00;;;;;;;5.03;100.00;102874.78;7394929;19;20421;-40
2023/12/16 09:49:29;;;;;;;16.97;7.13;;;;;;;4.99;100.00;102876.13;7373522;19;20872;-38
2023/12/16 09:51:59;;;;;;;20.10;6.27;;;;;;;4.98;100.00;102879.44;7393177;19;20399;-43
2023/12/16 09:54:29;;;;;;;18.20;8.23;;;;;;;5.00;100.00;102872.84;7374379;19;20424;-38
2023/12/16 09:56:59;;;;;;;14.27;7.77;;;;;;;4.95;100.00;102879.16;7394647;19;20415;-42
2023/12/16 09:59:32;;;;;;;10.80;6.33;;;;;;;4.93;100.00;102880.66;7372634;19;20423;-44
2023/12/16 10:02:05;;;;;;;14.63;5.13;;;;;;;4.93;100.00;102890.88;7394733;19;20403;-46
2023/12/16 10:04:37;;;;;;;17.83;8.40;;;;;;;4.95;100.00;102889.41;7371417;19;20419;-36
2023/12/16 10:07:08;;;;;;;14.93;7.63;;;;;;;4.97;100.00;102887.88;7394675;19;20403;-41
2023/12/16 10:09:38;;;;;;;19.03;9.10;;;;;;;4.95;100.00;102886.84;7370045;19;20423;-39
2023/12/16 10:12:09;;;;;;;15.63;6.63;;;;;;;4.95;100.00;102881.72;7393916;19;20935;-38
2023/12/16 10:14:51;;;;;;;25.00;11.20;;;;;;;4.99;100.00;102875.25;7369668;19;20415;-43
2023/12/16 10:17:22;;;;;;;28.03;11.90;;;;;;;5.04;100.00;102883.38;7394360;19;20415;-41
2023/12/16 10:19:51;;;;;;;25.33;9.90;;;;;;;5.08;100.00;102881.25;7370797;19;20453;-38
2023/12/16 10:22:21;;;;;;;12.10;5.30;;;;;;;5.02;100.00;102915.59;7396173;19;21167;-40
2023/12/16 10:24:52;;;;;;;26.17;10.00;;;;;;;5.08;100.00;102973.38;7371767;19;20411;-38
2023/12/16 10:27:23;;;;;;;16.13;7.00;;;;;;;5.06;100.00;102999.56;7395809;19;20903;-39
2023/12/16 10:29:55;;;;;;;29.67;12.87;;;;;;;5.19;100.00;103022.19;7372112;19;20522;-38
2023/12/16 10:32:40;;;;;;;25.43;11.03;;;;;;;5.16;100.00;103029.53;7393189;19;21068;-38
2023/12/16 10:35:10;;;;;;;30.60;10.87;;;;;;;5.20;100.00;103035.16;7370540;19;20955;-39
2023/12/16 10:37:50;;;;;;;18.60;9.90;;;;;;;5.17;100.00;103039.94;7395026;19;20392;-42
2023/12/16 10:40:26;;;;;;;22.50;9.70;;;;;;;5.19;100.00;103052.91;7370800;19;20422;-39
2023/12/16 10:42:56;;;;;;;38.10;11.43;;;;;;;5.34;100.00;103074.03;7394134;19;20408;-37
2023/12/16 10:45:28;;;;;;;34.73;15.43;;;;;;;5.30;100.00;103075.38;7370568;19;21022;-38
2023/12/16 10:47:57;;;;;;;14.93;6.97;;;;;;;5.33;100.00;103083.34;7395383;19;20410;-38
2023/12/16 10:50:28;;;;;;;76.37;28.10;;;;;;;5.38;100.00;103086.34;7370291;19;20435;-37
2023/12/16 10:52:59;;;;;;;31.80;13.97;;;;;;;5.34;100.00;103084.25;7392752;19;20403;-40
2023/12/16 10:55:31;;;;;;;34.17;11.40;;;;;;;5.37;100.00;103084.56;7372183;19;20514;-37
2023/12/16 10:58:09;;;;;;;46.53;17.43;;;;;;;5.42;100.00;103080.81;7393860;19;20407;-39
2023/12/16 11:00:43;;;;;;;34.50;13.47;;;;;;;5.44;100.00;103086.09;7370606;19;20448;-37
2023/12/16 11:03:17;;;;;;;55.37;18.77;;;;;;;5.49;100.00;103078.09;7395518;19;20486;-38
2023/12/16 11:05:52;;;;;;;31.47;13.83;;;;;;;5.43;100.00;103069.81;7370055;19;21127;-41
2023/12/16 11:08:22;;;;;;;14.13;7.27;;;;;;;5.51;100.00;103068.94;7393993;19;20486;-38
2023/12/16 11:10:54;;;;;;;50.10;19.63;;;;;;;5.50;100.00;103056.84;7367525;19;20427;-43
2023/12/16 11:13:24;;;;;;;28.47;9.93;;;;;;;5.46;100.00;103054.75;7393866;19;20395;-40
2023/12/16 11:16:01;;;;;;;22.93;10.07;;;;;;;5.47;100.00;103056.56;7370270;19;20494;-40
2023/12/16 11:18:31;;;;;;;27.83;11.80;;;;;;;5.56;100.00;103059.13;7394859;19;20951;-40
2023/12/16 11:21:04;;;;;;;23.93;11.60;;;;;;;5.56;100.00;103059.13;7369592;19;20450;-40
2023/12/16 11:23:34;;;;;;;31.73;13.83;;;;;;;5.52;100.00;103059.56;7394248;19;20395;-36
2023/12/16 11:26:05;;;;;;;32.70;13.87;;;;;;;5.58;100.00;103061.88;7370938;19;20563;-36
2023/12/16 11:28:35;;;;;;;39.83;19.80;;;;;;;5.58;100.00;103061.88;7394145;19;20467;-36
2023/12/16 11:31:08;;;;;;;29.03;7.97;;;;;;;5.53;100.00;103058.81;7370184;19;20459;-36
2023/12/16 11:33:45;;;;;;;37.83;15.43;;;;;;;5.58;100.00;103059.31;7394467;19;20423;-37
2023/12/16 11:36:15;;;;;;;16.67;7.60;;;;;;;5.56;100.00;103069.38;7370600;19;20439;-36